Terminal Aerodrome Forecast
Issued by NWS

Home | Current Version | Previous Version | Text Only | Print | Product List | Glossary Off
Versions: 1 2 3 4 5 6 7 8 9 10 11 12 13 14 15 16 17 18 19 20 21 22 23 24 25 26

018
FTUS45 KGGW 240528
TAFOLF
TAF
KOLF 240528Z 2406/2506 14007KT P6SM SCT170
     FM240700 12008KT P6SM FEW170 WS020/18035KT
     FM241900 26027G40KT P6SM VCSH BKN090
     FM250200 27011KT P6SM SCT140=

USA.gov is the U.S. government's official web portal to all federal, state and local government web resources and services.